YMML/MEL METAR and TAF weather

Enter ICAO airport designator
Station Type Date Time Source
YMML METAR 2021/10/20 07:00 UTC NOAA

YMML 200700Z 18009KT 9999 FEW044 BKN260 21/11 Q1015


Station Type Date Time Source
YMML Decoded METAR 2021/10/20 07:00 UTC NOAA

Melbourne Airport, Australia (YMML) 37-40S 144-50E 141M
Oct 20, 2021 - 03:00 AM EDT / 2021.10.20 0700 UTC
Wind: from the S (180 degrees) at 10 MPH (9 KT):0
Visibility: greater than 7 mile(s):0
Sky conditions: mostly cloudy
Temperature: 69 F (21 C)
Dew Point: 51 F (11 C)
Relative Humidity: 52%
Pressure (altimeter): 29.97 in. Hg (1015 hPa)
ob: YMML 200700Z 18009KT 9999 FEW044 BKN260 21/11 Q1015
cycle: 7

Station Type Date Time Source
YMML TAF 2021/10/20 06:51 UTC NOAA

TAF
AMD TAF
AMD YMML 200648Z 2006/2112 16008KT CAVOK
FM200730 01010KT CAVOK
FM202100 01018G28KT CAVOK
FM202300 01022G36KT CAVOK
FM210300 01014KT 9999 FEW045

Example: see airport list